• Join FlightAware (Why Join?)
  • Login
  • US Flag 
01:24PM EST


 

Airport Tracker/Info


-or-


 

Live Flight TrackerFlight Track Log ✈ UAL4257 ✈ 26-Apr-2013 ✈ MMMY / MTY - KIAH

Flight Track Log - Related Links

Times and Time Zones

All times are in EDT time to prevent confusion due to time zone crossing. See the UAL4257 flight status page for this flight to view local times or setup timezone preferences in your user account.

Time Position Orientation Groundspeed Altitude Reporting Facility
EDT Latitude Longitude Course Direction KTS MPH feet Rate Location/Type
12:31PM 26.2714 -99.5759 44° Northeast  Level Estimated
12:31PM 26.0536 -99.9586 44° Northeast 305 351 11,800  Level Houston Center
12:32PM 26.3445 -99.4967 44° Northeast  Level Estimated
12:32PM 26.1083 -99.8758 54° Northeast 319 367 12,400  Level Houston Center
12:33PM 26.4175 -99.4173 44° Northeast  Level Estimated
12:33PM 26.1633 -99.7800 57° Northeast 343 395 13,300  Level Houston Center
12:34PM 26.4904 -99.3379 44° Northeast  Level Estimated
12:34PM 26.2153 -99.6819 59° Northeast 357 411 14,700  Level Houston Center
12:35PM 26.5633 -99.2584 44° Northeast  Level Estimated
12:35PM 26.2678 -99.5892 58° Northeast 359 413 16,100  Level Houston Center
12:36PM 26.6362 -99.1787 44° Northeast  Level Estimated
12:36PM 26.3200 -99.4972 58° Northeast 356 410 17,500  Level Houston Center
12:37PM 26.7090 -99.0990 44° Northeast  Level Estimated
12:38PM 26.3828 -99.3875 57° Northeast 353 406 19,000  Level Houston Center
12:39PM 26.4369 -99.2953 57° Northeast 354 407 20,400 1,320 Climbing Houston Center
12:40PM 26.5042 -99.2100 49° Northeast 361 415 21,800 1,320 Climbing Houston Center
12:41PM 26.5764 -99.1314 44° Northeast 364 419 23,200 1,320 Climbing Houston Center
12:42PM 26.6458 -99.0444 48° Northeast 371 427 24,600 1,500 Climbing Houston Center
12:43PM 26.7283 -98.9394 49° Northeast 376 433 26,300 1,500 Climbing Houston Center
12:44PM 26.7981 -98.8531 48° Northeast 375 432 27,700 1,320 Climbing Houston Center
12:45PM 26.8758 -98.7778 41° Northeast 371 427 29,100 1,200 Climbing Houston Center
12:46PM 26.9528 -98.7036 41° Northeast 368 423 30,200 840 Climbing Houston Center
12:47PM 27.0339 -98.6281 40° Northeast 378 435 30,900 360 Climbing Houston Center
12:48PM 27.1375 -98.5283 41° Northeast 406 467 31,000  Climbing Houston Center
12:49PM 27.2314 -98.4378 41° Northeast 437 503 31,000  Level Houston Center
12:50PM 27.3311 -98.3444 40° Northeast 460 529 31,000  Level Houston Center
12:51PM 27.4339 -98.2464 40° Northeast 481 554 31,000 -60 Level Houston Center
12:52PM 27.5361 -98.1467 41° Northeast 487 560 30,900  Descending Houston Center
12:53PM 27.6589 -98.0297 40° Northeast 485 558 31,000  Climbing Houston Center
12:54PM 27.7597 -97.9314 41° Northeast 481 554 31,000  Level Houston Center
12:55PM 27.8614 -97.8339 40° Northeast 480 552 31,000  Level Houston Center
12:56PM 27.9622 -97.7358 41° Northeast 479 551 31,000  Level Houston Center
12:57PM 28.0783 -97.6244 40° Northeast 478 550 31,000  Level Houston Center
12:58PM 28.1792 -97.5272 40° Northeast 475 547 31,000  Level Houston Center
12:59PM 28.2789 -97.4289 41° Northeast 475 547 31,000 -60 Level Houston Center
01:00PM 28.3783 -97.3297 41° Northeast 475 547 30,900 -720 Descending Houston Center
01:01PM 28.4778 -97.2333 40° Northeast 472 543 29,600 -1,800 Descending Houston Center
01:02PM 28.5969 -97.1153 41° Northeast 474 545 27,300 -2,100 Descending Houston Center
01:03PM 28.6983 -97.0172 40° Northeast 478 550 25,300 -1,620 Descending Houston Center
01:04PM 28.7947 -96.9194 42° Northeast 468 539 24,000 -1,020 Descending Houston Center
01:05PM 28.8889 -96.8267 41° Northeast 453 521 23,300 -1,020 Descending Houston Center
01:06PM 28.9764 -96.7389 41° Northeast 425 489 21,900 -1,560 Descending Houston Center
01:08PM 29.0778 -96.6381 41° Northeast 404 465 20,100 -1,740 Descending Houston Center
01:09PM 29.1597 -96.5547 42° Northeast 400 460 18,300 -1,920 Descending Houston Center
01:10PM 29.2467 -96.4689 41° Northeast 413 475 16,200 -2,340 Descending Houston Center
01:10PM 29.2964 -96.4194 41° Northeast 387 445 14,700 -2,520 Descending Houston Center
01:11PM 29.3261 -96.3897 41° Northeast 396 456 13,600 -2,700 Descending Houston Center
01:11PM 29.3931 -96.3228 41° Northeast 368 423 11,400 -2,520 Descending Houston Center
01:12PM 29.4031 -96.3128 41° Northeast 375 432 11,000 -1,500 Descending Houston Center
01:12PM 29.4644 -96.2500 42° Northeast 372 428 10,000 -1,080 Descending Houston Center
01:13PM 29.4919 -96.2222 41° Northeast 358 412 9,900  Descending Houston Center
01:13PM 29.5358 -96.1750 43° Northeast 322 371 10,000  Climbing Houston Center
01:14PM 29.5533 -96.1486 53° Northeast 328 377 9,900  Descending Houston Center
01:14PM 29.5886 -96.0803 59° Northeast 325 374 10,000  Climbing Houston Center
01:15PM 29.5994 -96.0597 59° Northeast 324 373 9,900 -900 Descending Houston Center
01:15PM 29.6297 -95.9986 60° Northeast 322 371 9,200 -900 Descending Houston Center
01:16PM 29.6450 -95.9694 59° Northeast 319 367 9,000 -720 Descending Houston Center
01:16PM 29.6831 -95.9133 52° Northeast 306 352 8,400 -1,020 Descending Houston Center
01:17PM 29.7017 -95.9000 32° Northeast 306 352 8,000 -1,020 Descending Houston Center
01:17PM 29.7581 -95.8806 17° North 314 361 7,500 -900 Descending Houston Center
01:18PM 29.7867 -95.8708 16° North 316 364 7,100 -1,020 Descending Houston Center
01:19PM 29.8542 -95.8528 13° North 308 354 6,400 -1,260 Descending Houston Center
01:19PM 29.8850 -95.8375 23° Northeast 307 353 5,800 -1,140 Descending Houston Center
01:19PM 29.9169 -95.8044 42° Northeast 294 338 5,400 -780 Descending Houston Center
01:20PM 29.9458 -95.7742 42° Northeast 292 336 5,000 -300 Descending Houston Center
01:20PM 29.9697 -95.7356 54° Northeast 286 329 5,100 -120 Climbing Houston Center
01:21PM 29.9842 -95.6969 67° East 284 327 4,900 -240 Descending Houston Center
01:21PM 29.9939 -95.6533 76° East 274 315 4,900 -480 Level Houston Center
01:22PM 29.9950 -95.6119 88° East 272 313 4,400 -1,260 Descending Houston Center
01:23PM 29.9914 -95.5547 94° East 259 298 3,500 -1,500 Descending Houston Center
01:23PM 29.9933 -95.5278 85° East 265 305 2,900 -1,440 Descending Houston Center
01:24PM 29.9925 -95.4750 91° East 250 288 2,100 -1,260 Descending Houston Center
01:24PM 29.9936 -95.4497 87° East 255 293 1,600 -900 Descending Houston Center
01:25PM 29.9933 -95.4144 91° East 184 212 1,300 -720 Descending Houston Center
01:25PM 29.9939 -95.3972 88° East 198 228 900 -780 Descending Houston Center
01:26PM 29.9936 -95.3711 91° East 120 138 500 -540 Descending Houston Center
01:26PM 29.9939 -95.3467 89° East 169 194 400 -180 Descending Houston Center
01:28PM 29.9833 -95.3333 49° Northeast  Level FlightAware Approximate